createdAt,value
2022-08-27T00:00:37.163Z,54.31
2022-08-27T00:01:39.739Z,54.75
2022-08-27T00:02:43.210Z,54.74
2022-08-27T00:03:46.106Z,55.01
2022-08-27T00:04:48.065Z,54.83
2022-08-27T00:05:49.985Z,54.88
2022-08-27T00:06:51.896Z,54.17
2022-08-27T00:07:55.694Z,53.71
2022-08-27T00:08:58.501Z,54.88
2022-08-27T00:10:00.305Z,54.61
2022-08-27T00:11:02.379Z,54.87
2022-08-27T00:12:05.780Z,55.84
2022-08-27T00:13:07.769Z,55.44
2022-08-27T00:14:09.545Z,54.56
2022-08-27T00:15:12.465Z,54.81
2022-08-27T00:16:20.855Z,52.30
2022-08-27T00:17:22.700Z,54.56
2022-08-27T00:18:24.556Z,53.55
2022-08-27T00:19:26.488Z,54.31
2022-08-27T00:20:28.614Z,54.69
2022-08-27T00:21:30.690Z,54.56
2022-08-27T00:22:32.589Z,55.43
2022-08-27T00:23:36.296Z,55.75
2022-08-27T00:24:48.708Z,54.43
2022-08-27T00:25:50.970Z,55.41
2022-08-27T00:26:54.005Z,54.22
2022-08-27T00:27:55.803Z,55.64
2022-08-27T00:28:57.791Z,55.35
2022-08-27T00:30:00.258Z,55.52
2022-08-27T00:31:02.591Z,54.06
2022-08-27T00:32:04.619Z,55.53
2022-08-27T00:33:06.438Z,54.49
2022-08-27T00:34:08.502Z,52.99
2022-08-27T00:35:16.291Z,52.86
2022-08-27T00:36:18.355Z,53.71
2022-08-27T00:37:20.517Z,53.22
2022-08-27T00:38:23.544Z,52.35
2022-08-27T00:39:25.352Z,52.91
2022-08-27T00:40:27.662Z,53.20
2022-08-27T00:41:29.471Z,54.15
2022-08-27T00:42:31.281Z,54.59
2022-08-27T00:43:57.592Z,53.74
2022-08-27T00:44:59.917Z,53.25
2022-08-27T00:46:10.655Z,54.26
2022-08-27T00:47:17.052Z,54.04
2022-08-27T00:48:21.926Z,54.47
2022-08-27T00:49:46.017Z,54.86
2022-08-27T00:50:52.695Z,54.44
2022-08-27T00:52:06.468Z,54.10
2022-08-27T00:53:12.578Z,54.92
2022-08-27T00:54:18.686Z,55.47
2022-08-27T00:55:28.747Z,55.42
2022-08-27T00:56:36.066Z,56.02
2022-08-27T00:57:40.869Z,55.43
2022-08-27T00:58:46.128Z,55.66
2022-08-27T00:59:48.596Z,55.86
2022-08-27T01:00:50.662Z,55.52
2022-08-27T01:02:11.171Z,55.57
2022-08-27T01:03:14.084Z,55.69
2022-08-27T01:04:16.081Z,56.25
2022-08-27T01:05:22.214Z,55.85
2022-08-27T01:06:29.745Z,55.52
2022-08-27T01:07:36.498Z,55.52
2022-08-27T01:08:42.560Z,56.79
2022-08-27T01:09:46.766Z,57.16
2022-08-27T01:10:54.064Z,57.21
2022-08-27T01:11:58.178Z,56.96
2022-08-27T01:13:00.560Z,57.11
2022-08-27T01:14:04.998Z,57.27
2022-08-27T01:15:12.045Z,57.47
2022-08-27T01:16:21.007Z,57.50
2022-08-27T01:17:25.212Z,57.91
2022-08-27T01:18:28.936Z,56.91
2022-08-27T01:19:36.285Z,56.60
2022-08-27T01:20:51.748Z,56.26
2022-08-27T01:22:21.729Z,56.53
2022-08-27T01:23:48.728Z,55.17
2022-08-27T01:24:52.999Z,55.00
2022-08-27T01:25:55.141Z,54.50
2022-08-27T01:26:59.259Z,53.89
2022-08-27T01:28:03.486Z,54.46
2022-08-27T01:29:05.542Z,54.29
2022-08-27T01:30:10.297Z,54.07
2022-08-27T01:31:13.522Z,53.39
2022-08-27T01:32:24.354Z,53.92
2022-08-27T01:33:26.164Z,52.82
2022-08-27T01:34:28.015Z,52.93
2022-08-27T01:35:29.972Z,53.19
2022-08-27T01:36:32.954Z,53.42
2022-08-27T01:37:35.402Z,53.56
2022-08-27T01:38:37.164Z,53.52
2022-08-27T01:39:40.790Z,53.68
2022-08-27T01:40:42.849Z,53.95
2022-08-27T01:41:46.971Z,53.58
2022-08-27T01:42:56.853Z,54.28
2022-08-27T01:43:58.658Z,54.66
2022-08-27T01:45:10.995Z,54.98
2022-08-27T01:46:13.041Z,55.88
2022-08-27T01:47:16.031Z,56.03
2022-08-27T01:48:22.034Z,56.27
2022-08-27T01:49:23.805Z,56.13
2022-08-27T01:50:32.166Z,56.05
2022-08-27T01:51:34.758Z,56.00
2022-08-27T01:52:37.154Z,55.36
2022-08-27T01:53:38.948Z,55.32
2022-08-27T01:54:40.984Z,55.74
2022-08-27T01:55:48.139Z,56.16
2022-08-27T01:56:50.291Z,55.60
2022-08-27T01:57:53.423Z,55.76
2022-08-27T01:58:55.220Z,55.63
2022-08-27T01:59:58.241Z,55.80
2022-08-27T02:01:10.609Z,55.67
2022-08-27T02:02:16.767Z,55.70
2022-08-27T02:03:19.341Z,55.81
2022-08-27T02:04:21.764Z,55.52
2022-08-27T02:05:26.285Z,55.27
2022-08-27T02:06:28.079Z,55.61
2022-08-27T02:07:29.858Z,55.93
2022-08-27T02:08:32.384Z,55.89
2022-08-27T02:09:34.221Z,56.20
2022-08-27T02:10:38.854Z,56.14
2022-08-27T02:11:45.092Z,56.51
2022-08-27T02:12:47.248Z,56.67
2022-08-27T02:13:49.381Z,56.90
2022-08-27T02:14:52.045Z,56.27
2022-08-27T02:15:54.341Z,55.79
2022-08-27T02:16:56.644Z,55.32
2022-08-27T02:17:58.498Z,55.78
2022-08-27T02:19:00.567Z,56.07
2022-08-27T02:20:02.685Z,57.43
2022-08-27T02:21:05.317Z,57.55
2022-08-27T02:22:07.344Z,56.98
2022-08-27T02:23:09.324Z,56.73
2022-08-27T02:24:11.342Z,57.34
2022-08-27T02:25:14.156Z,58.04
2022-08-27T02:26:15.999Z,57.97
2022-08-27T02:27:18.603Z,57.87
2022-08-27T02:28:20.530Z,57.71
2022-08-27T02:29:23.413Z,56.80
2022-08-27T02:30:25.447Z,56.81
2022-08-27T02:31:27.394Z,57.25
2022-08-27T02:32:31.791Z,57.51
2022-08-27T02:33:34.190Z,56.83
2022-08-27T02:34:35.982Z,56.79
2022-08-27T02:35:44.066Z,57.23
2022-08-27T02:36:46.480Z,57.46
2022-08-27T02:37:48.976Z,57.41
2022-08-27T02:38:51.367Z,57.35
2022-08-27T02:39:53.417Z,57.70
2022-08-27T02:40:55.407Z,57.34
2022-08-27T02:41:57.202Z,56.92
2022-08-27T02:42:59.046Z,56.68
2022-08-27T02:44:01.514Z,57.99
2022-08-27T02:45:03.462Z,57.30
2022-08-27T02:46:05.509Z,57.05
2022-08-27T02:47:07.378Z,57.30
2022-08-27T02:48:09.358Z,58.11
2022-08-27T02:49:11.343Z,58.25
2022-08-27T02:50:14.845Z,58.23
2022-08-27T02:51:16.684Z,57.94
2022-08-27T02:52:25.030Z,58.73
2022-08-27T02:53:27.405Z,58.63
2022-08-27T02:54:30.294Z,59.01
2022-08-27T02:55:33.412Z,59.67
2022-08-27T02:56:35.575Z,59.21
2022-08-27T02:57:37.434Z,59.16
2022-08-27T02:58:41.075Z,58.78
2022-08-27T02:59:42.881Z,58.00
2022-08-27T03:00:45.319Z,58.38
2022-08-27T03:01:47.800Z,58.82
2022-08-27T03:02:50.062Z,59.44
2022-08-27T03:03:52.695Z,60.07
2022-08-27T03:04:54.512Z,60.03
2022-08-27T03:05:58.325Z,58.84
2022-08-27T03:07:00.620Z,58.93
2022-08-27T03:08:03.781Z,58.98
2022-08-27T03:09:05.956Z,59.35
2022-08-27T03:10:10.058Z,59.57
2022-08-27T03:11:12.871Z,59.36
2022-08-27T03:12:16.183Z,59.05
2022-08-27T03:13:18.936Z,59.38
2022-08-27T03:14:20.834Z,59.88
2022-08-27T03:15:22.758Z,59.58
2022-08-27T03:16:24.973Z,58.90
2022-08-27T03:17:45.543Z,58.86
2022-08-27T03:18:47.390Z,58.92
2022-08-27T03:19:50.875Z,58.80
2022-08-27T03:20:55.910Z,59.90
2022-08-27T03:21:57.678Z,60.22
2022-08-27T03:23:00.663Z,59.74
2022-08-27T03:24:11.402Z,59.82
2022-08-27T03:25:14.060Z,60.06
2022-08-27T03:26:17.006Z,59.92
2022-08-27T03:27:18.802Z,59.06
2022-08-27T03:28:23.877Z,58.88
2022-08-27T03:29:25.765Z,59.03
2022-08-27T03:30:27.857Z,58.91
2022-08-27T03:31:29.683Z,58.95
2022-08-27T03:32:31.633Z,58.88
2022-08-27T03:33:40.585Z,58.60
2022-08-27T03:34:42.615Z,59.16
2022-08-27T03:35:45.689Z,59.03
2022-08-27T03:36:50.466Z,59.23
2022-08-27T03:37:52.304Z,59.67
2022-08-27T03:38:54.502Z,60.20
2022-08-27T03:39:56.329Z,59.63
2022-08-27T03:40:58.140Z,60.12
2022-08-27T03:41:59.921Z,59.19
2022-08-27T03:43:01.855Z,59.09
2022-08-27T03:44:04.419Z,58.85
2022-08-27T03:45:07.916Z,57.96
2022-08-27T03:46:10.443Z,58.22
2022-08-27T03:47:12.250Z,57.98
2022-08-27T03:48:14.904Z,57.78
2022-08-27T03:49:20.696Z,58.07
2022-08-27T03:50:23.230Z,57.82
2022-08-27T03:51:25.419Z,57.53
2022-08-27T03:52:28.820Z,57.58
2022-08-27T03:53:30.734Z,58.26
2022-08-27T03:54:36.263Z,58.76
2022-08-27T03:55:38.045Z,59.08
2022-08-27T03:56:41.770Z,59.88
2022-08-27T03:57:43.603Z,59.43
2022-08-27T03:58:45.402Z,59.50
2022-08-27T03:59:47.323Z,59.41
2022-08-27T04:00:49.165Z,59.48
2022-08-27T04:01:50.954Z,59.69
2022-08-27T04:02:53.641Z,59.15
2022-08-27T04:03:55.471Z,58.81
2022-08-27T04:04:58.019Z,59.00
2022-08-27T04:06:00.260Z,59.11
2022-08-27T04:07:02.158Z,59.91
2022-08-27T04:08:04.068Z,59.48
2022-08-27T04:09:06.067Z,59.55
2022-08-27T04:10:09.653Z,59.87
2022-08-27T04:11:11.924Z,59.69
2022-08-27T04:12:13.729Z,59.33
2022-08-27T04:13:16.323Z,59.11
2022-08-27T04:14:24.826Z,59.03
2022-08-27T04:15:30.100Z,59.31
2022-08-27T04:16:33.827Z,58.76
2022-08-27T04:17:35.783Z,58.91
2022-08-27T04:18:37.628Z,58.96
2022-08-27T04:19:39.427Z,58.98
2022-08-27T04:20:41.637Z,59.01
2022-08-27T04:21:43.731Z,59.18
2022-08-27T04:22:45.528Z,59.20
2022-08-27T04:23:47.328Z,59.40
2022-08-27T04:24:49.309Z,59.44
2022-08-27T04:25:51.099Z,59.08
2022-08-27T04:26:52.929Z,58.86
2022-08-27T04:27:54.712Z,58.97
2022-08-27T04:28:58.204Z,58.27
2022-08-27T04:30:01.082Z,58.45
2022-08-27T04:31:04.090Z,58.36
2022-08-27T04:32:06.004Z,57.69
2022-08-27T04:33:08.098Z,58.42
2022-08-27T04:34:09.937Z,59.05
2022-08-27T04:35:11.990Z,59.19
2022-08-27T04:36:14.647Z,58.33
2022-08-27T04:37:16.874Z,57.64
2022-08-27T04:38:25.223Z,56.96
2022-08-27T04:39:28.548Z,56.47
2022-08-27T04:40:50.470Z,56.12
2022-08-27T04:41:55.657Z,56.33
2022-08-27T04:42:57.630Z,55.82
2022-08-27T04:44:04.705Z,56.28
2022-08-27T04:45:07.079Z,56.26
2022-08-27T04:46:09.279Z,55.80
2022-08-27T04:47:11.128Z,54.54
2022-08-27T04:48:15.490Z,54.08
2022-08-27T04:49:17.718Z,54.35
2022-08-27T04:50:19.935Z,54.37
2022-08-27T04:51:22.263Z,54.43
2022-08-27T04:52:24.275Z,53.96
2022-08-27T04:53:26.314Z,53.65
2022-08-27T04:54:32.405Z,53.62
2022-08-27T04:55:40.552Z,52.72
2022-08-27T04:56:42.654Z,52.14
2022-08-27T04:57:44.456Z,50.82
2022-08-27T04:58:46.283Z,50.52
2022-08-27T04:59:48.291Z,48.98
2022-08-27T05:00:56.423Z,47.87
2022-08-27T05:01:58.648Z,48.42
2022-08-27T05:03:00.493Z,47.67
2022-08-27T05:04:02.685Z,48.05
2022-08-27T05:05:05.076Z,47.39
2022-08-27T05:06:07.450Z,48.03
2022-08-27T05:07:10.642Z,46.79
2022-08-27T05:08:13.307Z,46.35
2022-08-27T05:09:16.208Z,45.40
2022-08-27T05:10:20.059Z,46.49
2022-08-27T05:11:23.839Z,46.44
2022-08-27T05:12:25.732Z,45.12
2022-08-27T05:13:29.031Z,44.97
2022-08-27T05:14:32.581Z,45.04
2022-08-27T05:15:35.306Z,44.70
2022-08-27T05:16:38.163Z,44.26
2022-08-27T05:17:40.009Z,44.23
2022-08-27T05:18:48.039Z,43.85
2022-08-27T05:19:50.589Z,43.62
2022-08-27T05:20:52.399Z,42.77
2022-08-27T05:21:54.405Z,42.47
2022-08-27T05:22:56.929Z,42.67
2022-08-27T05:24:01.392Z,42.97
2022-08-27T05:25:03.278Z,42.95
2022-08-27T05:26:07.556Z,43.13
2022-08-27T05:27:09.973Z,43.77
2022-08-27T05:28:16.943Z,44.45
2022-08-27T05:29:18.956Z,44.00
2022-08-27T05:30:21.131Z,44.85
2022-08-27T05:31:23.044Z,43.82
2022-08-27T05:32:24.879Z,43.45
2022-08-27T05:33:26.752Z,43.50
2022-08-27T05:34:30.091Z,44.26
2022-08-27T05:35:32.965Z,44.08
2022-08-27T05:36:35.845Z,44.53
2022-08-27T05:37:37.996Z,44.88
2022-08-27T05:38:39.858Z,45.70
2022-08-27T05:39:41.643Z,45.85
2022-08-27T05:40:44.116Z,46.18
2022-08-27T05:41:45.912Z,46.81
2022-08-27T05:42:51.108Z,47.74
2022-08-27T05:43:57.541Z,48.07
2022-08-27T05:45:00.925Z,48.24
2022-08-27T05:46:07.713Z,47.97
2022-08-27T05:47:10.314Z,48.90
2022-08-27T05:48:12.958Z,48.80
2022-08-27T05:49:15.039Z,49.16
2022-08-27T05:50:20.730Z,49.50
2022-08-27T05:51:34.244Z,49.72
2022-08-27T05:52:36.683Z,50.62
2022-08-27T05:53:39.520Z,50.31
2022-08-27T05:54:41.348Z,49.55
2022-08-27T05:55:45.631Z,48.92
2022-08-27T05:56:51.700Z,48.18
2022-08-27T05:57:53.494Z,48.76
2022-08-27T05:59:14.528Z,50.65
2022-08-27T06:00:35.905Z,51.21
2022-08-27T06:01:45.086Z,49.83
2022-08-27T06:02:47.006Z,50.72
2022-08-27T06:03:48.827Z,50.91
2022-08-27T06:04:50.747Z,49.81
2022-08-27T06:06:01.803Z,47.10
2022-08-27T06:07:03.761Z,47.31
2022-08-27T06:08:05.578Z,48.26
2022-08-27T06:09:08.799Z,48.53
2022-08-27T06:10:11.522Z,48.60
2022-08-27T06:11:13.556Z,49.30
2022-08-27T06:12:15.374Z,48.45
2022-08-27T06:13:17.211Z,48.36
2022-08-27T06:14:19.083Z,48.69
2022-08-27T06:15:20.932Z,48.76
2022-08-27T06:16:23.634Z,47.83
2022-08-27T06:17:25.449Z,47.69
2022-08-27T06:18:27.242Z,47.61
2022-08-27T06:19:29.302Z,48.62
2022-08-27T06:20:31.128Z,48.12
2022-08-27T06:21:33.671Z,49.59
2022-08-27T06:22:35.491Z,47.59
2022-08-27T06:23:37.954Z,48.28
2022-08-27T06:24:42.074Z,47.48
2022-08-27T06:25:43.979Z,48.19
2022-08-27T06:26:45.871Z,46.74
2022-08-27T06:27:47.656Z,48.00
2022-08-27T06:28:50.530Z,48.27
2022-08-27T06:29:52.313Z,48.84
2022-08-27T06:30:54.120Z,49.04
2022-08-27T06:31:56.603Z,49.30
2022-08-27T06:32:58.373Z,51.46
2022-08-27T06:34:07.277Z,50.48
2022-08-27T06:35:09.724Z,50.87
2022-08-27T06:36:14.526Z,49.56
2022-08-27T06:37:16.361Z,52.28
2022-08-27T06:38:18.143Z,51.98
2022-08-27T06:39:19.999Z,47.70
2022-08-27T06:40:23.428Z,47.67
2022-08-27T06:41:27.069Z,46.94
2022-08-27T06:42:28.849Z,46.74
2022-08-27T06:43:33.032Z,45.61
2022-08-27T06:44:34.880Z,45.98
2022-08-27T06:45:40.172Z,45.54
2022-08-27T06:46:43.150Z,45.72
2022-08-27T06:47:45.382Z,47.81
2022-08-27T06:48:48.077Z,46.40
2022-08-27T06:49:49.844Z,47.03
2022-08-27T06:50:51.653Z,45.31
2022-08-27T06:51:53.805Z,44.35
2022-08-27T06:52:55.656Z,41.44
2022-08-27T06:53:59.605Z,44.19
2022-08-27T06:55:01.516Z,41.34
2022-08-27T06:56:03.564Z,39.30
2022-08-27T06:57:05.403Z,39.60
2022-08-27T06:58:07.569Z,39.48
2022-08-27T06:59:12.412Z,37.36
2022-08-27T07:00:14.449Z,38.33
2022-08-27T07:01:22.902Z,38.34
2022-08-27T07:02:24.839Z,35.64
2022-08-27T07:03:26.687Z,36.47
2022-08-27T07:04:32.773Z,35.32
2022-08-27T07:05:37.172Z,31.70
2022-08-27T07:06:39.942Z,32.48
2022-08-27T07:07:46.712Z,33.22
2022-08-27T07:08:53.169Z,32.70
2022-08-27T07:09:55.600Z,32.47
2022-08-27T07:10:58.017Z,31.95
2022-08-27T07:12:00.952Z,32.97
2022-08-27T07:13:03.362Z,31.65
2022-08-27T07:14:06.492Z,31.71
2022-08-27T07:15:08.810Z,30.54
2022-08-27T07:16:14.253Z,30.45
2022-08-27T07:17:17.552Z,28.81
2022-08-27T07:18:19.327Z,29.03
2022-08-27T07:19:30.521Z,31.13
2022-08-27T07:20:33.264Z,29.01
2022-08-27T07:21:36.333Z,28.60
2022-08-27T07:22:42.944Z,31.10
2022-08-27T07:23:44.744Z,27.74
2022-08-27T07:24:46.816Z,27.37
2022-08-27T07:25:48.903Z,29.61
2022-08-27T07:26:50.711Z,28.09
2022-08-27T07:27:52.868Z,27.86
2022-08-27T07:28:54.664Z,29.22
2022-08-27T07:29:56.446Z,26.90
2022-08-27T07:30:58.301Z,27.05
2022-08-27T07:32:00.164Z,27.66
2022-08-27T07:33:01.989Z,27.00
2022-08-27T07:34:04.941Z,27.68
2022-08-27T07:35:09.890Z,27.18
2022-08-27T07:36:12.198Z,27.83
2022-08-27T07:37:15.169Z,28.21
2022-08-27T07:38:16.955Z,27.33
2022-08-27T07:39:18.847Z,27.18
2022-08-27T07:40:20.680Z,27.32
2022-08-27T07:41:22.467Z,27.10
2022-08-27T07:42:48.390Z,27.37
2022-08-27T07:44:08.434Z,27.08
2022-08-27T07:45:10.818Z,26.40
2022-08-27T07:46:12.662Z,25.93
2022-08-27T07:47:14.571Z,26.13
2022-08-27T07:48:16.639Z,26.35
2022-08-27T07:49:19.310Z,25.22
2022-08-27T07:50:23.795Z,25.11
2022-08-27T07:51:27.426Z,25.70
2022-08-27T07:52:29.268Z,25.81
2022-08-27T07:53:34.125Z,25.53
2022-08-27T07:54:35.963Z,26.99
2022-08-27T07:55:39.006Z,27.53
2022-08-27T07:56:40.911Z,26.57
2022-08-27T07:57:42.706Z,26.54
2022-08-27T07:58:45.355Z,27.32
2022-08-27T07:59:48.533Z,26.37
2022-08-27T08:00:50.311Z,25.40
2022-08-27T08:01:52.509Z,23.99
2022-08-27T08:02:54.556Z,26.20
2022-08-27T08:03:56.831Z,25.38
2022-08-27T08:04:58.755Z,25.26
2022-08-27T08:06:10.447Z,25.80
2022-08-27T08:07:12.513Z,25.23
2022-08-27T08:08:14.485Z,25.32
2022-08-27T08:09:16.384Z,24.68
2022-08-27T08:10:22.705Z,24.38
2022-08-27T08:11:24.557Z,24.01
2022-08-27T08:12:27.216Z,24.86
2022-08-27T08:13:29.096Z,24.53
2022-08-27T08:14:32.398Z,22.41
2022-08-27T08:15:35.042Z,23.46
2022-08-27T08:16:36.963Z,24.46
2022-08-27T08:17:38.913Z,23.72
2022-08-27T08:18:40.937Z,23.07
2022-08-27T08:19:53.490Z,23.07
2022-08-27T08:21:11.456Z,24.21
2022-08-27T08:22:13.244Z,24.13
2022-08-27T08:23:15.118Z,23.80
2022-08-27T08:24:18.495Z,23.35
2022-08-27T08:25:21.321Z,24.67
2022-08-27T08:26:24.081Z,24.69
2022-08-27T08:27:26.033Z,24.00
2022-08-27T08:28:30.341Z,22.42
2022-08-27T08:29:32.138Z,22.97
2022-08-27T08:30:35.493Z,22.86
2022-08-27T08:31:37.481Z,22.29
2022-08-27T08:32:39.535Z,23.08
2022-08-27T08:33:41.386Z,23.19
2022-08-27T08:34:44.328Z,24.04
2022-08-27T08:35:46.378Z,23.03
2022-08-27T08:36:54.501Z,21.69
2022-08-27T08:37:56.671Z,20.45
2022-08-27T08:38:59.154Z,21.27
2022-08-27T08:40:01.001Z,21.80
2022-08-27T08:41:04.182Z,21.61
2022-08-27T08:42:08.110Z,21.78
2022-08-27T08:43:26.925Z,21.95
2022-08-27T08:44:31.234Z,21.37
2022-08-27T08:45:36.536Z,21.63
2022-08-27T08:46:46.813Z,20.73
2022-08-27T08:47:57.278Z,22.08
2022-08-27T08:49:04.003Z,19.88
2022-08-27T08:50:11.218Z,21.47
2022-08-27T08:51:22.071Z,21.93
2022-08-27T08:52:43.783Z,21.92
2022-08-27T08:53:55.694Z,20.46
2022-08-27T08:55:07.049Z,21.47
2022-08-27T08:56:21.371Z,21.16
2022-08-27T08:57:31.082Z,19.66
2022-08-27T08:59:06.161Z,21.18
2022-08-27T09:00:14.329Z,21.90
2022-08-27T09:01:20.934Z,20.28
2022-08-27T09:02:23.021Z,20.76
2022-08-27T09:03:29.901Z,19.10
2022-08-27T09:04:31.797Z,19.46
2022-08-27T09:05:37.579Z,20.70
2022-08-27T09:06:56.433Z,20.61
2022-08-27T09:08:28.638Z,19.22
2022-08-27T09:09:31.931Z,21.12
2022-08-27T09:10:52.992Z,19.76
2022-08-27T09:12:15.536Z,19.27
2022-08-27T09:13:32.881Z,21.27
2022-08-27T09:14:41.641Z,19.81
2022-08-27T09:15:49.260Z,20.07
2022-08-27T09:16:51.184Z,21.19
2022-08-27T09:18:14.020Z,19.57
2022-08-27T09:19:16.511Z,20.04
2022-08-27T09:20:26.221Z,18.86
2022-08-27T09:21:51.743Z,19.39
2022-08-27T09:23:06.834Z,17.77
2022-08-27T09:24:18.444Z,17.54
2022-08-27T09:25:26.334Z,17.74
2022-08-27T09:26:33.591Z,18.59
2022-08-27T09:27:42.970Z,18.33
2022-08-27T09:29:03.419Z,19.00
2022-08-27T09:30:20.890Z,18.35
2022-08-27T09:31:23.226Z,19.03
2022-08-27T09:32:32.655Z,18.47
2022-08-27T09:33:44.398Z,17.52
2022-08-27T09:35:03.287Z,17.03
2022-08-27T09:36:09.984Z,15.78
2022-08-27T09:37:23.302Z,16.75
2022-08-27T09:38:36.944Z,17.03
2022-08-27T09:40:22.597Z,20.08
2022-08-27T09:41:33.320Z,19.33
2022-08-27T09:42:41.610Z,18.16
2022-08-27T09:44:07.357Z,18.22
2022-08-27T09:45:12.800Z,17.61
2022-08-27T09:46:21.600Z,18.14
2022-08-27T09:47:26.952Z,18.83
2022-08-27T09:48:31.525Z,17.50
2022-08-27T09:49:36.854Z,17.10
2022-08-27T09:50:57.072Z,15.22
2022-08-27T09:51:59.260Z,17.58
2022-08-27T09:53:01.548Z,16.73
2022-08-27T09:54:04.506Z,19.24
2022-08-27T09:55:07.258Z,17.20
2022-08-27T09:56:11.268Z,17.13
2022-08-27T09:57:26.339Z,15.27
2022-08-27T09:58:47.745Z,15.86
2022-08-27T09:59:54.850Z,16.90
2022-08-27T10:01:17.188Z,16.92
2022-08-27T10:02:22.332Z,17.87
2022-08-27T10:03:24.161Z,16.43
2022-08-27T10:04:51.533Z,17.18
2022-08-27T10:05:54.756Z,16.46
2022-08-27T10:06:56.641Z,15.11
2022-08-27T10:08:04.853Z,16.97
2022-08-27T10:09:18.947Z,15.53
2022-08-27T10:10:37.501Z,15.78
2022-08-27T10:11:55.238Z,15.95
2022-08-27T10:13:10.095Z,15.79
2022-08-27T10:14:20.386Z,15.93
2022-08-27T10:15:29.790Z,17.42
2022-08-27T10:17:20.701Z,16.74
2022-08-27T10:18:45.014Z,17.18
2022-08-27T10:19:58.502Z,17.82
2022-08-27T10:21:42.195Z,17.12
2022-08-27T10:23:07.842Z,17.80
2022-08-27T10:24:35.507Z,18.74
2022-08-27T10:25:47.283Z,18.15
2022-08-27T10:27:08.494Z,18.53
2022-08-27T10:28:26.696Z,17.34
2022-08-27T10:29:43.213Z,18.92
2022-08-27T10:31:06.383Z,17.48
2022-08-27T10:32:25.651Z,17.23
2022-08-27T10:33:46.814Z,17.39
2022-08-27T10:35:05.572Z,17.75
2022-08-27T10:36:19.504Z,16.97
2022-08-27T10:37:45.960Z,15.57
2022-08-27T10:39:06.683Z,17.41
2022-08-27T10:40:09.346Z,16.76
2022-08-27T10:41:14.049Z,15.76
2022-08-27T10:42:26.508Z,16.31
2022-08-27T10:44:02.062Z,16.03
2022-08-27T10:45:11.402Z,16.15
2022-08-27T10:46:31.751Z,15.56
2022-08-27T10:47:44.658Z,18.03
2022-08-27T10:49:01.484Z,15.95
2022-08-27T10:50:27.616Z,14.89
2022-08-27T10:51:44.009Z,16.55
2022-08-27T10:52:51.696Z,16.48
2022-08-27T10:54:10.569Z,16.96
2022-08-27T10:55:18.349Z,16.53
2022-08-27T10:56:33.358Z,16.41
2022-08-27T10:57:56.820Z,16.92
2022-08-27T10:59:21.703Z,17.33
2022-08-27T11:00:25.430Z,15.33
2022-08-27T11:01:48.409Z,14.95
2022-08-27T11:03:01.344Z,15.60
2022-08-27T11:04:13.443Z,15.41
2022-08-27T11:05:24.794Z,17.77
2022-08-27T11:06:43.158Z,18.35
2022-08-27T11:08:02.114Z,16.79
2022-08-27T11:09:10.598Z,16.52
2022-08-27T11:10:29.398Z,18.25
2022-08-27T11:13:13.619Z,17.18
2022-08-27T11:14:25.387Z,16.19
2022-08-27T11:15:29.107Z,16.39
2022-08-27T11:16:45.423Z,17.30
2022-08-27T11:17:59.851Z,20.51
2022-08-27T11:19:14.097Z,17.10
2022-08-27T11:20:25.188Z,16.75
2022-08-27T11:22:03.025Z,16.27
2022-08-27T11:23:34.273Z,16.91
2022-08-27T11:24:55.665Z,16.48
2022-08-27T11:26:01.591Z,15.90
2022-08-27T11:27:08.191Z,16.38
2022-08-27T11:28:11.929Z,15.98
2022-08-27T11:29:25.002Z,15.43
2022-08-27T11:30:30.228Z,15.79
2022-08-27T11:31:38.538Z,17.11
2022-08-27T11:32:46.630Z,16.22
2022-08-27T11:34:13.615Z,15.63
2022-08-27T11:35:46.893Z,16.31
2022-08-27T11:37:06.034Z,17.70
2022-08-27T11:38:38.526Z,17.26
2022-08-27T11:39:56.781Z,16.73
2022-08-27T11:41:17.123Z,15.92
2022-08-27T11:42:36.318Z,16.01
2022-08-27T11:43:38.369Z,16.29
2022-08-27T11:44:44.841Z,16.86
2022-08-27T11:46:01.852Z,17.30
2022-08-27T11:47:24.624Z,16.63
2022-08-27T11:48:36.190Z,16.63
2022-08-27T11:49:49.083Z,15.33
2022-08-27T11:51:26.093Z,15.63
2022-08-27T11:52:38.643Z,16.66
2022-08-27T11:53:57.489Z,16.33
2022-08-27T11:55:25.115Z,16.29
2022-08-27T11:56:29.906Z,16.87
2022-08-27T11:57:34.678Z,16.01
2022-08-27T11:58:53.361Z,15.85
2022-08-27T11:59:55.532Z,16.70
2022-08-27T12:01:03.746Z,15.31
2022-08-27T12:02:22.974Z,17.02
2022-08-27T12:03:32.607Z,16.62
2022-08-27T12:04:41.407Z,16.94
2022-08-27T12:05:49.207Z,16.26
2022-08-27T12:07:00.364Z,17.13
2022-08-27T12:08:22.080Z,16.08
2022-08-27T12:09:24.549Z,17.47
2022-08-27T12:10:40.554Z,16.67
2022-08-27T12:11:56.910Z,16.27
2022-08-27T12:13:42.011Z,17.72
2022-08-27T12:14:53.709Z,17.91
2022-08-27T12:16:00.294Z,16.88
2022-08-27T12:17:14.083Z,17.46
2022-08-27T12:18:27.868Z,18.25
2022-08-27T12:20:06.180Z,17.25
2022-08-27T12:21:20.046Z,18.35
2022-08-27T12:23:01.345Z,17.52
2022-08-27T12:24:21.085Z,20.25
2022-08-27T12:25:23.866Z,17.56
2022-08-27T12:26:25.615Z,18.98
2022-08-27T12:27:34.967Z,19.00
2022-08-27T12:28:36.823Z,19.13
2022-08-27T12:29:57.178Z,18.16
2022-08-27T12:30:59.166Z,17.54
2022-08-27T12:32:10.542Z,17.77
2022-08-27T12:33:23.703Z,17.74
2022-08-27T12:34:26.976Z,18.00
2022-08-27T12:35:45.804Z,17.69
2022-08-27T12:36:53.417Z,18.15
2022-08-27T12:38:10.637Z,17.28
2022-08-27T12:39:16.767Z,18.44
2022-08-27T12:40:25.903Z,18.49
2022-08-27T12:41:44.059Z,18.07
2022-08-27T12:42:46.753Z,18.02
2022-08-27T12:43:48.557Z,17.61
2022-08-27T12:44:58.200Z,19.29
2022-08-27T12:46:19.730Z,20.02
2022-08-27T12:47:21.773Z,20.50
2022-08-27T12:48:34.298Z,20.23
2022-08-27T12:49:59.496Z,20.14
2022-08-27T12:51:07.141Z,19.56
2022-08-27T12:52:38.207Z,20.33
2022-08-27T12:53:43.308Z,19.85
2022-08-27T12:54:54.049Z,19.93
2022-08-27T12:56:27.929Z,20.33
2022-08-27T12:57:54.144Z,19.77
2022-08-27T12:59:06.125Z,19.93
2022-08-27T13:00:19.302Z,20.15
2022-08-27T13:01:36.816Z,20.00
2022-08-27T13:03:18.631Z,19.09
2022-08-27T13:04:30.644Z,20.07
2022-08-27T13:05:48.192Z,19.76
2022-08-27T13:06:50.894Z,21.26
2022-08-27T13:07:55.519Z,20.27
2022-08-27T13:09:00.239Z,20.95
2022-08-27T13:10:15.428Z,19.92
2022-08-27T13:11:23.754Z,19.24
2022-08-27T13:12:26.029Z,19.78
2022-08-27T13:13:27.877Z,19.62
2022-08-27T13:14:38.118Z,19.57
2022-08-27T13:15:52.462Z,20.72
2022-08-27T13:16:57.781Z,19.46
2022-08-27T13:18:02.549Z,20.38
2022-08-27T13:19:07.225Z,19.94
2022-08-27T13:20:27.837Z,19.79
2022-08-27T13:21:33.142Z,19.55
2022-08-27T13:22:41.130Z,20.11
2022-08-27T13:23:57.192Z,19.27
2022-08-27T13:25:03.039Z,19.74
2022-08-27T13:26:10.734Z,20.07
2022-08-27T13:27:13.303Z,19.74
2022-08-27T13:28:17.246Z,19.38
2022-08-27T13:29:19.806Z,19.26
2022-08-27T13:30:35.228Z,19.94
2022-08-27T13:31:39.115Z,22.36
2022-08-27T13:32:41.365Z,23.14
2022-08-27T13:33:44.181Z,22.57
2022-08-27T13:34:46.208Z,21.49
2022-08-27T13:35:48.195Z,19.87
2022-08-27T13:36:56.223Z,19.48
2022-08-27T13:37:59.047Z,19.81
2022-08-27T13:39:06.142Z,20.60
2022-08-27T13:40:08.853Z,18.75
2022-08-27T13:41:20.458Z,18.73
2022-08-27T13:42:24.699Z,18.37
2022-08-27T13:43:40.058Z,19.40
2022-08-27T13:44:48.029Z,19.47
2022-08-27T13:45:52.698Z,19.39
2022-08-27T13:47:02.219Z,18.73
2022-08-27T13:48:05.859Z,18.83
2022-08-27T13:49:17.873Z,19.30
2022-08-27T13:50:29.235Z,20.82
2022-08-27T13:51:34.649Z,19.58
2022-08-27T13:53:12.624Z,22.14
2022-08-27T13:54:17.958Z,20.83
2022-08-27T13:55:19.808Z,20.05
2022-08-27T13:56:31.880Z,20.25
2022-08-27T13:57:44.606Z,19.63
2022-08-27T13:58:46.932Z,20.20
2022-08-27T13:59:48.740Z,20.47
2022-08-27T14:00:50.633Z,21.13
2022-08-27T14:02:10.585Z,19.31
2022-08-27T14:03:32.932Z,19.30
2022-08-27T14:04:41.141Z,21.12
2022-08-27T14:05:48.399Z,19.49
2022-08-27T14:06:51.206Z,19.69
2022-08-27T14:08:02.346Z,19.95
2022-08-27T14:09:16.442Z,21.36
2022-08-27T14:10:18.185Z,20.16
2022-08-27T14:11:25.976Z,21.18
2022-08-27T14:12:34.732Z,20.22
2022-08-27T14:13:46.942Z,20.50
2022-08-27T14:14:54.575Z,19.93
2022-08-27T14:16:00.231Z,19.04
2022-08-27T14:17:03.549Z,19.35
2022-08-27T14:18:08.647Z,19.77
2022-08-27T14:19:26.253Z,19.53
2022-08-27T14:20:28.906Z,20.24
2022-08-27T14:21:32.157Z,19.73
2022-08-27T14:22:34.607Z,20.60
2022-08-27T14:23:36.394Z,20.93
2022-08-27T14:24:38.171Z,20.42